Casper, WY (82604)

5:27 PM MDT on April 24, 2017 (GMT -0600)
PV 9th hole | | Change Station
Active Advisory: Special Statement

Elev 5161 ft 42.82 °N, 106.40 °W | Updated 3 seconds ago

Overcast
Overcast
56.5 °F
Feels Like 56.5 °F
N
8.7
Wind Variable Wind from South
Gusts 12.3 mph

Today
High -- | Low -- °F
--% Chance of Precip.
Yesterday
High -- | Low -- °F
Precip. -- in
Pressure 29.48 in
Visibility 10.0 miles
Clouds Clear
Dew Point 35 °F
Humidity 44%
Rainfall 0.00 in
Snow Depth Not available.
6:09 AM 7:58 PM
Waning Crescent, 3% visible
METAR KCPR 242253Z 19016KT 10SM CLR 13/01 A2954 RMK AO2 SLP981 T01280006
Pressure 29.48 in
Visibility 10.0 miles
Clouds Clear
Dew Point 35 °F
Humidity 44%
Rainfall 0.00 in
Snow Depth Not available.
6:09 AM 7:58 PM
Waning Crescent, 3% visible
METAR KCPR 242253Z 19016KT 10SM CLR 13/01 A2954 RMK AO2 SLP981 T01280006

Get Your Daily Forecast Email!

Thanks for signing up!

Be on the lookout for a verification email in your inbox.

You'll start receiving severe weather alerts in your inbox..

×

10-Day Weather Forecast

Almanac

Astronomy

Apr. 24, 2017 Rise Set
Actual Time
Civil Twilight
Nautical Twilight
Astronomical Twilight
Moon
Length of Visible Light
Length of Day
Tomorrow will be .
, % of the Moon is Illuminated

Today's Extremes

State Highs State Lows

Community

WunderPhotos

WunderBlog® & News

Nearby

Air Quality

  Air Quality AQ Index Pollutant
Not available.

Snow Depth

Station Depth Elevation

Earthquake Activity

City Distance Mag. Time & Date
Minimum magnitude displayed is 2.5.

Coastal Water Temperatures

Place Temperature

Stations

Nearby Weather Stations

Station Location Temp. Windchill Dew Point Humidity Wind Precip. Elev Updated Type
                   

Watches & Warnings

Special Statement
Issued: 11:02 AM MDT Apr. 24, 2017 – National Weather Service

... Burst of Spring snow expected late tonight through Tuesday
morning across portions of Natrona County in addition to green and
Rattlesnake Mountains...

Light rain will become mixed with snow by around midnight tonight
above 5500 feet... then down to near basin floor level after 4 am.
The snow or rain snow mix will continue at times through Tuesday
morning. The heaviest snow is expected through Tuesday morning
above 5500 feet... with generally one to 3 inches of total
snowfall accumulation by early afternoon Tuesday. Highways 789 or
287 will become slick, slushy or snow covered at
times... especially over Beaver Rim. Visibility could be reduced to
under one half mile at times in snow.